Time;durP1;ratioP1;P1;durP2;ratioP2;P2;SDS_P1;SDS_P2;PMS_P1;PMS_P2;Temp;Humidity;BMP_temperature;BMP_pressure;BME280_temperature;BME280_humidity;BME280_pressure;Samples;Min_cycle;Max_cycle;Signal;HPM_P1;HPM_P2
2024/01/24 00:01:13;;;;;;;102.07;38.97;;;;;;;-0.07;100.00;98651.22;5069124;28;20028;-89
2024/01/24 00:03:39;;;;;;;91.80;37.28;;;;;;;-0.15;100.00;98650.34;5074031;28;20066;-88
2024/01/24 00:06:04;;;;;;;88.68;37.78;;;;;;;-0.04;100.00;98638.06;5085972;28;20115;-87
2024/01/24 00:08:30;;;;;;;83.32;37.15;;;;;;;0.08;100.00;98652.94;5070738;28;20566;-87
2024/01/24 00:10:55;;;;;;;83.47;38.33;;;;;;;0.06;100.00;98645.94;5069941;28;20489;-86
2024/01/24 00:13:22;;;;;;;90.63;38.38;;;;;;;0.13;100.00;98659.03;5054105;28;20032;-87
2024/01/24 00:15:47;;;;;;;87.57;38.42;;;;;;;0.11;100.00;98659.91;5056541;28;20052;-86
2024/01/24 00:18:13;;;;;;;102.45;41.20;;;;;;;0.25;100.00;98664.25;5065662;28;20087;-87
2024/01/24 00:20:38;;;;;;;106.22;41.55;;;;;;;0.24;100.00;98657.25;5063970;28;20028;-86
2024/01/24 00:23:04;;;;;;;94.72;38.63;;;;;;;0.40;100.00;98676.50;5058591;28;20111;-87
2024/01/24 00:25:30;;;;;;;117.80;43.67;;;;;;;0.40;100.00;98677.34;5065477;28;20048;-87
2024/01/24 00:27:57;;;;;;;100.57;40.88;;;;;;;0.37;100.00;98669.47;5045844;28;20044;-86
2024/01/24 00:30:22;;;;;;;95.20;40.53;;;;;;;0.31;100.00;98669.50;5069139;28;20032;-88
2024/01/24 00:32:48;;;;;;;93.00;39.13;;;;;;;0.36;100.00;98688.78;5063000;28;20055;-87
2024/01/24 00:35:15;;;;;;;97.05;41.13;;;;;;;0.34;100.00;98682.63;5054077;28;20025;-87
2024/01/24 00:37:40;;;;;;;97.13;41.42;;;;;;;0.35;100.00;98673.88;5054795;28;20560;-87
2024/01/24 00:40:07;;;;;;;103.03;42.80;;;;;;;0.43;100.00;98682.59;5065140;28;20032;-87
2024/01/24 00:42:33;;;;;;;102.40;39.70;;;;;;;0.46;100.00;98681.75;5073732;28;20039;-87
2024/01/24 00:44:58;;;;;;;113.78;44.78;;;;;;;0.38;100.00;98667.72;5064894;28;20463;-86
2024/01/24 00:47:24;;;;;;;117.85;47.58;;;;;;;0.46;100.00;98672.06;5067128;28;20036;-86
2024/01/24 00:49:49;;;;;;;125.95;48.90;;;;;;;0.49;100.00;98673.84;5053113;28;20131;-88
2024/01/24 00:52:15;;;;;;;116.15;49.88;;;;;;;0.53;100.00;98671.16;5067316;28;20461;-86
2024/01/24 00:54:41;;;;;;;118.35;48.42;;;;;;;0.58;100.00;98676.44;5064353;28;20036;-87
2024/01/24 00:57:07;;;;;;;109.80;46.90;;;;;;;0.60;100.00;98669.38;5065706;28;20502;-86
2024/01/24 00:59:32;;;;;;;117.72;50.35;;;;;;;0.54;100.00;98665.03;5074369;28;20173;-86
2024/01/24 01:01:58;;;;;;;125.25;48.83;;;;;;;0.46;100.00;98676.47;5077978;28;20063;-88
2024/01/24 01:04:24;;;;;;;130.80;52.85;;;;;;;0.37;100.00;98669.47;5053371;28;20035;-88
2024/01/24 01:06:50;;;;;;;128.32;51.55;;;;;;;0.38;100.00;98675.63;5062969;28;20028;-87
2024/01/24 01:09:15;;;;;;;120.32;49.63;;;;;;;0.43;100.00;98687.88;5090525;28;20463;-88
2024/01/24 01:11:41;;;;;;;120.00;49.53;;;;;;;0.26;100.00;98686.19;5055975;28;20060;-87
2024/01/24 01:14:06;;;;;;;113.63;46.38;;;;;;;0.27;100.00;98695.84;5081540;28;20016;-88
2024/01/24 01:16:32;;;;;;;108.20;43.78;;;;;;;0.24;100.00;98686.19;5090390;28;20028;-88
2024/01/24 01:18:58;;;;;;;106.95;45.40;;;;;;;0.25;100.00;98672.16;5064256;28;20020;-87
2024/01/24 01:21:24;;;;;;;83.32;34.55;;;;;;;0.34;100.00;98676.53;5073212;28;20419;-86
2024/01/24 01:23:50;;;;;;;103.38;40.33;;;;;;;0.30;100.00;98670.41;5062934;28;20045;-87
2024/01/24 01:26:17;;;;;;;105.10;39.08;;;;;;;0.23;100.00;98684.44;5052926;28;20036;-87
2024/01/24 01:28:42;;;;;;;99.80;38.00;;;;;;;0.08;100.00;98655.56;5053192;28;20039;-89
2024/01/24 01:31:08;;;;;;;76.28;31.17;;;;;;;0.12;100.00;98661.69;5064958;28;20112;-86
2024/01/24 01:33:34;;;;;;;85.80;34.88;;;;;;;0.12;100.00;98651.16;5065991;28;20021;-87
2024/01/24 01:35:59;;;;;;;84.53;37.60;;;;;;;0.02;100.00;98628.41;5054356;28;20036;-86
2024/01/24 01:38:25;;;;;;;85.18;33.42;;;;;;;0.23;100.00;98658.13;5090724;28;20016;-86
2024/01/24 01:40:50;;;;;;;77.63;33.45;;;;;;;0.19;100.00;98656.38;5072169;28;20488;-86
2024/01/24 01:43:16;;;;;;;78.38;33.42;;;;;;;0.27;100.00;98659.88;5085143;28;20110;-86
2024/01/24 01:45:42;;;;;;;77.97;34.90;;;;;;;0.38;100.00;98665.97;5060355;28;20031;-86
2024/01/24 01:48:08;;;;;;;74.68;34.00;;;;;;;0.42;100.00;98657.19;5086809;28;20043;-85
2024/01/24 01:50:34;;;;;;;91.35;36.20;;;;;;;0.45;100.00;98649.28;5052917;28;20025;-86
2024/01/24 01:53:01;;;;;;;89.53;38.08;;;;;;;0.47;100.00;98644.00;5052291;28;20125;-87
2024/01/24 01:55:27;;;;;;;95.78;38.65;;;;;;;0.38;100.00;98637.03;5057490;28;20032;-85
2024/01/24 01:57:52;;;;;;;96.10;37.83;;;;;;;0.45;100.00;98643.13;5072265;28;20024;-86
2024/01/24 02:00:21;;;;;;;88.75;38.00;;;;;;;0.44;100.00;98639.63;5060777;28;20021;-85
2024/01/24 02:02:50;;;;;;;88.40;38.13;;;;;;;0.48;100.00;98633.47;5069198;28;20451;-86
2024/01/24 02:05:16;;;;;;;105.32;38.78;;;;;;;0.40;100.00;98632.63;5072030;28;20031;-85
2024/01/24 02:07:45;;;;;;;98.65;40.55;;;;;;;0.54;100.00;98629.94;5057040;28;20060;-87
2024/01/24 02:10:12;;;;;;;98.00;41.13;;;;;;;0.47;100.00;98626.47;5062913;28;20107;-85
2024/01/24 02:12:37;;;;;;;98.30;38.13;;;;;;;0.55;100.00;98639.59;5072219;28;20024;-87
2024/01/24 02:15:03;;;;;;;83.20;36.63;;;;;;;0.46;100.00;98640.50;5067284;28;20392;-85
2024/01/24 02:17:29;;;;;;;83.50;35.95;;;;;;;0.42;100.00;98636.13;5075795;28;20049;-86
2024/01/24 02:19:54;;;;;;;96.10;40.40;;;;;;;0.50;100.00;98647.50;5067783;28;20020;-86
2024/01/24 02:22:20;;;;;;;111.53;43.85;;;;;;;0.38;100.00;98647.56;5063578;28;20032;-86
2024/01/24 02:24:45;;;;;;;107.38;42.33;;;;;;;0.38;100.00;98642.28;5079382;28;20067;-86
2024/01/24 02:27:11;;;;;;;102.25;44.22;;;;;;;0.41;100.00;98647.53;5075306;28;20038;-86
2024/01/24 02:29:37;;;;;;;117.95;44.63;;;;;;;0.20;100.00;98634.47;5075660;28;20118;-86
2024/01/24 02:32:02;;;;;;;112.78;43.75;;;;;;;0.22;100.00;98637.97;5092514;28;20471;-85
2024/01/24 02:34:28;;;;;;;98.50;41.13;;;;;;;0.25;100.00;98630.06;5075506;28;20028;-86
2024/01/24 02:36:54;;;;;;;87.05;37.72;;;;;;;0.12;100.00;98644.16;5075634;28;20404;-87
2024/01/24 02:39:19;;;;;;;89.95;38.67;;;;;;;-0.14;100.00;98636.31;5067409;28;20075;-86
2024/01/24 02:41:45;;;;;;;89.05;35.80;;;;;;;-0.12;100.00;98636.31;5075396;28;20024;-86
2024/01/24 02:44:11;;;;;;;88.35;35.30;;;;;;;0.00;100.00;98638.94;5082231;28;20526;-86
2024/01/24 02:46:36;;;;;;;90.13;35.65;;;;;;;-0.04;100.00;98629.28;5068581;28;20039;-86
2024/01/24 02:49:03;;;;;;;84.32;34.42;;;;;;;-0.03;100.00;98631.91;5066644;28;20032;-85
2024/01/24 02:51:28;;;;;;;89.85;35.38;;;;;;;0.13;100.00;98645.88;5080405;28;20025;-84
2024/01/24 02:53:54;;;;;;;93.88;37.25;;;;;;;0.08;100.00;98636.25;5055436;28;20024;-86
2024/01/24 02:56:20;;;;;;;83.35;35.08;;;;;;;0.18;100.00;98644.13;5063254;28;20033;-86
2024/01/24 02:58:46;;;;;;;79.93;34.70;;;;;;;0.22;100.00;98630.06;5086304;28;20047;-85
2024/01/24 03:01:12;;;;;;;78.40;34.55;;;;;;;0.28;100.00;98629.16;5058015;28;20136;-85
2024/01/24 03:03:41;;;;;;;94.75;37.00;;;;;;;0.20;100.00;98626.56;5062179;28;20499;-87
2024/01/24 03:06:07;;;;;;;85.72;37.25;;;;;;;0.25;100.00;98651.09;5071886;28;20032;-86
2024/01/24 03:08:57;;;;;;;91.55;37.45;;;;;;;0.04;100.00;98632.75;5062608;28;20036;-86
2024/01/24 03:11:26;;;;;;;94.95;39.38;;;;;;;0.11;100.00;98623.97;5074187;28;20027;-86
2024/01/24 03:13:51;;;;;;;94.88;40.83;;;;;;;0.16;100.00;98618.69;5076944;28;20024;-86
2024/01/24 03:16:17;;;;;;;97.68;39.90;;;;;;;0.28;100.00;98619.53;5072968;28;20043;-87
2024/01/24 03:18:43;;;;;;;93.57;40.55;;;;;;;0.20;100.00;98609.91;5060581;28;20427;-87
2024/01/24 03:21:14;;;;;;;88.00;37.90;;;;;;;0.25;100.00;98616.91;5066062;28;20033;-85
2024/01/24 03:23:40;;;;;;;100.28;39.47;;;;;;;0.36;100.00;98615.13;5083250;28;20020;-87
2024/01/24 03:26:08;;;;;;;108.78;41.67;;;;;;;0.44;100.00;98623.84;5054462;28;20134;-87
2024/01/24 03:28:34;;;;;;;86.18;37.13;;;;;;;0.34;100.00;98614.22;5069204;28;20377;-86
2024/01/24 03:31:00;;;;;;;100.07;39.13;;;;;;;0.29;100.00;98608.13;5061990;28;20094;-85
2024/01/24 03:33:26;;;;;;;95.38;38.95;;;;;;;0.31;100.00;98608.97;5054105;28;20476;-84
2024/01/24 03:35:52;;;;;;;97.28;40.75;;;;;;;0.35;100.00;98610.72;5054467;28;20025;-85
2024/01/24 03:38:18;;;;;;;90.88;39.08;;;;;;;0.36;100.00;98608.97;5054486;28;20055;-86
2024/01/24 03:40:44;;;;;;;102.72;39.50;;;;;;;0.29;100.00;98608.13;5059830;28;20457;-86
2024/01/24 03:43:13;;;;;;;89.50;38.05;;;;;;;0.27;100.00;98628.31;5054714;28;20044;-86
2024/01/24 03:45:39;;;;;;;84.43;36.28;;;;;;;0.29;100.00;98631.81;5077025;28;20028;-85
2024/01/24 03:48:06;;;;;;;96.82;39.05;;;;;;;0.14;100.00;98633.63;5087708;28;20473;-86
2024/01/24 03:50:32;;;;;;;95.45;39.53;;;;;;;-0.10;100.00;98624.94;5090662;28;20060;-86
2024/01/24 03:52:58;;;;;;;89.68;39.65;;;;;;;-0.07;100.00;98626.69;5090671;28;20024;-86
2024/01/24 03:55:23;;;;;;;86.63;37.78;;;;;;;-0.03;100.00;98624.00;5067043;28;20412;-85
2024/01/24 03:57:49;;;;;;;77.90;34.13;;;;;;;0.02;100.00;98631.91;5075695;28;20024;-84
2024/01/24 04:00:16;;;;;;;93.10;37.50;;;;;;;0.07;100.00;98648.53;5091043;28;20063;-86
2024/01/24 04:02:41;;;;;;;106.78;41.45;;;;;;;0.15;100.00;98649.41;5062154;28;20062;-86
2024/01/24 04:05:08;;;;;;;93.15;40.42;;;;;;;0.13;100.00;98630.09;5060891;28;20032;-86
2024/01/24 04:07:33;;;;;;;92.00;39.28;;;;;;;0.21;100.00;98638.88;5062813;28;20028;-86
2024/01/24 04:09:59;;;;;;;108.10;44.08;;;;;;;0.30;100.00;98644.09;5062625;28;20539;-87
2024/01/24 04:12:25;;;;;;;109.53;43.92;;;;;;;0.37;100.00;98637.03;5058843;28;20135;-87
2024/01/24 04:14:50;;;;;;;108.85;45.40;;;;;;;0.38;100.00;98634.41;5053544;28;20173;-85
2024/01/24 04:17:16;;;;;;;121.40;46.35;;;;;;;0.46;100.00;98637.84;5054223;28;20472;-86
2024/01/24 04:19:42;;;;;;;98.50;41.20;;;;;;;0.30;100.00;98640.56;5064898;28;20028;-84
2024/01/24 04:22:08;;;;;;;96.45;39.38;;;;;;;0.31;100.00;98656.34;5075112;28;20020;-86
2024/01/24 04:24:34;;;;;;;101.50;40.88;;;;;;;0.35;100.00;98652.81;5063468;28;20439;-84
2024/01/24 04:27:00;;;;;;;90.97;40.35;;;;;;;0.40;100.00;98661.56;5081740;28;20135;-86
2024/01/24 04:29:26;;;;;;;99.88;42.17;;;;;;;0.34;100.00;98651.06;5060629;28;20134;-84
2024/01/24 04:31:51;;;;;;;101.80;39.70;;;;;;;0.43;100.00;98666.81;5054681;28;20108;-86
2024/01/24 04:34:20;;;;;;;89.90;39.13;;;;;;;0.38;100.00;98660.69;5079019;28;20031;-88
2024/01/24 04:36:46;;;;;;;106.22;40.80;;;;;;;0.33;100.00;98653.72;5074561;28;20024;-82
2024/01/24 04:39:12;;;;;;;103.97;42.38;;;;;;;0.38;100.00;98665.09;5058723;28;20398;-82
2024/01/24 04:41:37;;;;;;;96.53;39.65;;;;;;;0.38;100.00;98655.44;5059832;28;20028;-86
2024/01/24 04:44:04;;;;;;;100.45;40.70;;;;;;;0.47;100.00;98673.81;5065005;28;20051;-76
2024/01/24 04:46:30;;;;;;;90.15;37.55;;;;;;;0.43;100.00;98674.72;5064853;28;20406;-86
2024/01/24 04:48:55;;;;;;;117.47;46.03;;;;;;;0.46;100.00;98673.84;5061169;28;20115;-84
2024/01/24 04:51:24;;;;;;;93.75;38.60;;;;;;;0.47;100.00;98684.34;5081164;28;20080;-86
2024/01/24 04:53:50;;;;;;;96.80;38.63;;;;;;;0.47;100.00;98683.47;5080687;28;20103;-84
2024/01/24 04:56:16;;;;;;;105.82;43.38;;;;;;;0.44;100.00;98687.00;5061644;28;20035;-85
2024/01/24 04:58:42;;;;;;;99.65;40.90;;;;;;;0.43;100.00;98671.22;5064463;28;20027;-86
2024/01/24 05:01:08;;;;;;;102.63;41.80;;;;;;;0.44;100.00;98681.72;5079717;28;20032;-87
2024/01/24 05:03:33;;;;;;;114.43;44.22;;;;;;;0.46;100.00;98676.47;5060628;28;20063;-88
2024/01/24 05:06:00;;;;;;;104.72;44.15;;;;;;;0.59;100.00;98695.69;5058870;28;20544;-87
2024/01/24 05:08:25;;;;;;;101.18;41.50;;;;;;;0.54;100.00;98691.34;5063950;28;20468;-85
2024/01/24 05:10:51;;;;;;;90.82;40.58;;;;;;;0.59;100.00;98678.16;5082823;28;20038;-86
2024/01/24 05:13:17;;;;;;;99.57;41.78;;;;;;;0.54;100.00;98669.41;5062971;28;20081;-85
2024/01/24 05:15:43;;;;;;;90.28;40.15;;;;;;;0.52;100.00;98674.66;5077011;28;20016;-89
2024/01/24 05:18:09;;;;;;;115.60;46.70;;;;;;;0.51;100.00;98682.59;5080162;28;20035;-88
2024/01/24 05:20:35;;;;;;;102.22;45.75;;;;;;;0.53;100.00;98668.53;5060285;28;20067;-78
2024/01/24 05:23:03;;;;;;;104.75;44.17;;;;;;;0.59;100.00;98674.63;5082292;28;20035;-86
2024/01/24 05:25:30;;;;;;;130.27;51.10;;;;;;;0.58;100.00;98662.38;5077625;28;20040;-83
2024/01/24 05:27:55;;;;;;;125.30;48.97;;;;;;;0.71;100.00;98687.78;5073197;28;20039;-83
2024/01/24 05:30:21;;;;;;;108.65;43.40;;;;;;;0.69;100.00;98694.78;5081457;28;20036;-84
2024/01/24 05:32:46;;;;;;;98.85;40.88;;;;;;;0.68;100.00;98693.06;5062777;28;20115;-83
2024/01/24 05:35:12;;;;;;;93.70;40.03;;;;;;;0.76;100.00;98691.25;5078703;28;20039;-84
2024/01/24 05:37:38;;;;;;;88.60;37.30;;;;;;;0.67;100.00;98701.81;5077981;28;20051;-81
2024/01/24 05:40:05;;;;;;;88.30;36.55;;;;;;;0.47;100.00;98686.09;5080464;28;20491;-86
2024/01/24 05:42:31;;;;;;;87.13;37.55;;;;;;;0.47;100.00;98697.50;5074912;28;20029;-84
2024/01/24 05:44:56;;;;;;;94.07;40.97;;;;;;;0.51;100.00;98695.75;5060521;28;20395;-85
2024/01/24 05:47:22;;;;;;;116.65;50.15;;;;;;;0.54;100.00;98683.44;5052635;28;20028;-83
2024/01/24 05:49:47;;;;;;;112.13;50.22;;;;;;;0.50;100.00;98694.88;5069681;28;20031;-84
2024/01/24 05:52:13;;;;;;;110.80;48.17;;;;;;;0.45;100.00;98679.97;5076080;28;20032;-84
2024/01/24 05:54:40;;;;;;;117.05;47.40;;;;;;;0.56;100.00;98678.16;5076041;28;20036;-83
2024/01/24 05:57:06;;;;;;;121.60;52.65;;;;;;;0.63;100.00;98676.38;5090975;28;20111;-84
2024/01/24 05:59:32;;;;;;;132.90;54.38;;;;;;;0.50;100.00;98665.91;5059664;28;20071;-84
2024/01/24 06:02:04;;;;;;;135.88;55.35;;;;;;;0.60;100.00;98685.19;5073040;28;20048;-85
2024/01/24 06:04:34;;;;;;;143.38;57.63;;;;;;;0.51;100.00;98672.06;5063434;28;20115;-84
2024/01/24 06:07:00;;;;;;;146.25;58.85;;;;;;;0.42;100.00;98662.44;5076100;28;20488;-84
2024/01/24 06:09:29;;;;;;;138.82;56.03;;;;;;;0.49;100.00;98679.94;5073653;28;20027;-84
2024/01/24 06:11:54;;;;;;;142.27;59.60;;;;;;;0.53;100.00;98684.31;5086727;28;20047;-84
2024/01/24 06:14:20;;;;;;;164.07;66.28;;;;;;;0.43;100.00;98682.59;5084961;28;20033;-84
2024/01/24 06:16:46;;;;;;;152.70;64.53;;;;;;;0.36;100.00;98694.06;5072899;28;20028;-84
2024/01/24 06:19:11;;;;;;;121.90;52.80;;;;;;;0.26;100.00;98687.06;5075811;28;20486;-84
2024/01/24 06:21:37;;;;;;;99.05;42.15;;;;;;;0.17;100.00;98689.72;5068393;28;20028;-87
2024/01/24 06:24:05;;;;;;;93.75;38.47;;;;;;;-0.06;100.00;98670.47;5063501;28;20427;-83
2024/01/24 06:26:31;;;;;;;105.65;44.92;;;;;;;0.05;100.00;98689.75;5063284;28;20476;-84
2024/01/24 06:28:57;;;;;;;99.82;40.65;;;;;;;0.14;100.00;98689.72;5080123;28;20067;-83
2024/01/24 06:31:23;;;;;;;108.03;43.75;;;;;;;0.37;100.00;98693.16;5056023;28;20032;-85
2024/01/24 06:33:48;;;;;;;87.43;38.92;;;;;;;0.47;100.00;98700.13;5055907;28;20036;-83
2024/01/24 06:36:14;;;;;;;92.63;37.30;;;;;;;0.62;100.00;98701.81;5071090;28;20067;-84
2024/01/24 06:38:39;;;;;;;83.57;38.80;;;;;;;0.64;100.00;98705.34;5055386;28;20024;-83
2024/01/24 06:41:05;;;;;;;94.75;42.53;;;;;;;0.49;100.00;98698.38;5055409;28;20499;-84
2024/01/24 06:43:31;;;;;;;96.43;42.40;;;;;;;0.53;100.00;98704.50;5061572;28;20514;-84
2024/01/24 06:45:56;;;;;;;89.93;40.38;;;;;;;0.58;100.00;98699.22;5075101;28;20032;-83
2024/01/24 06:48:22;;;;;;;94.85;40.45;;;;;;;0.80;100.00;98693.00;5087181;28;20021;-84
2024/01/24 06:50:47;;;;;;;86.90;38.70;;;;;;;0.81;100.00;98698.25;5071748;28;20554;-83
2024/01/24 06:53:14;;;;;;;89.05;39.20;;;;;;;0.83;100.00;98698.25;5088434;28;20024;-84
2024/01/24 06:55:41;;;;;;;85.82;39.53;;;;;;;0.90;100.00;98698.19;5070477;28;20055;-84
2024/01/24 06:58:07;;;;;;;86.28;39.17;;;;;;;0.94;100.00;98705.19;5064077;28;20031;-84
2024/01/24 07:00:33;;;;;;;94.25;41.55;;;;;;;1.05;100.00;98702.50;5067952;28;20039;-82
2024/01/24 07:03:00;;;;;;;99.55;42.28;;;;;;;1.25;100.00;98698.00;5084211;28;20020;-83
2024/01/24 07:05:25;;;;;;;95.82;42.75;;;;;;;1.26;100.00;98672.53;5079431;28;20027;-83
2024/01/24 07:07:51;;;;;;;108.35;45.72;;;;;;;1.26;100.00;98677.78;5071799;28;20028;-83
2024/01/24 07:10:16;;;;;;;101.82;44.47;;;;;;;1.28;100.00;98676.88;5057625;28;20514;-83
2024/01/24 07:12:45;;;;;;;131.32;53.83;;;;;;;1.38;100.00;98683.84;5074914;28;20024;-82
2024/01/24 07:15:12;;;;;;;120.70;51.55;;;;;;;1.31;100.00;98682.13;5063976;28;20032;-83
2024/01/24 07:17:38;;;;;;;135.98;56.47;;;;;;;1.34;100.00;98668.94;5071053;28;20138;-82
2024/01/24 07:20:04;;;;;;;137.93;59.75;;;;;;;1.55;100.00;98674.03;5062700;28;20056;-82
2024/01/24 07:22:29;;;;;;;141.23;59.75;;;;;;;1.60;100.00;98680.13;5062652;28;20535;-82
2024/01/24 07:24:55;;;;;;;138.57;59.58;;;;;;;1.54;100.00;98692.47;5054413;28;20131;-82
2024/01/24 07:27:21;;;;;;;157.93;65.65;;;;;;;1.57;100.00;98695.97;5062566;28;20056;-83
2024/01/24 07:29:46;;;;;;;150.55;63.42;;;;;;;1.79;100.00;98693.16;5080696;28;20107;-83
2024/01/24 07:32:12;;;;;;;148.10;63.67;;;;;;;2.96;100.00;98687.44;5070591;28;20079;-82
2024/01/24 07:34:38;;;;;;;135.10;59.70;;;;;;;4.49;100.00;98677.78;5084797;28;20028;-82
2024/01/24 07:37:05;;;;;;;139.70;61.42;;;;;;;5.34;100.00;98666.25;5089884;28;20028;-82
2024/01/24 07:39:31;;;;;;;152.05;68.72;;;;;;;6.25;100.00;98663.09;5070654;28;20492;-82
2024/01/24 07:41:57;;;;;;;142.50;63.20;;;;;;;7.37;100.00;98665.13;5054087;28;20111;-82
2024/01/24 07:44:23;;;;;;;144.27;68.03;;;;;;;8.49;100.00;98656.91;5062486;28;20028;-83
2024/01/24 07:46:49;;;;;;;149.23;70.82;;;;;;;8.99;93.00;98646.16;5054156;28;20070;-83
2024/01/24 07:49:15;;;;;;;163.60;80.03;;;;;;;9.63;85.01;98639.16;5053198;28;20500;-83
2024/01/24 07:51:41;;;;;;;179.70;83.97;;;;;;;10.07;78.03;98640.88;5067654;28;20439;-85
2024/01/24 07:54:07;;;;;;;242.18;104.15;;;;;;;10.04;75.06;98640.13;5073777;28;20032;-83
2024/01/24 07:56:33;;;;;;;153.55;77.45;;;;;;;9.59;80.06;98640.22;5073785;28;20035;-86
2024/01/24 07:58:58;;;;;;;151.85;72.25;;;;;;;9.33;81.73;98646.59;5090828;28;20047;-81
2024/01/24 08:01:24;;;;;;;141.85;69.28;;;;;;;10.01;76.74;98642.91;5081995;28;20032;-80
2024/01/24 08:03:50;;;;;;;145.43;71.90;;;;;;;10.17;72.88;98642.25;5073509;28;20479;-80
2024/01/24 08:06:16;;;;;;;169.63;82.82;;;;;;;10.51;70.37;98648.81;5081947;28;20035;-84
2024/01/24 08:08:42;;;;;;;139.23;71.78;;;;;;;9.96;73.19;98658.28;5082865;28;20020;-84
2024/01/24 08:11:07;;;;;;;140.00;71.93;;;;;;;10.48;72.50;98659.63;5073323;28;20036;-84
2024/01/24 08:13:33;;;;;;;142.48;70.32;;;;;;;11.06;65.88;98640.03;5090126;28;20419;-82
2024/01/24 08:15:59;;;;;;;126.85;64.55;;;;;;;11.22;64.03;98641.06;5073672;28;20031;-84
2024/01/24 08:18:24;;;;;;;128.18;61.10;;;;;;;10.60;67.12;98654.63;5070974;28;20032;-85
2024/01/24 08:20:52;;;;;;;124.75;63.50;;;;;;;10.47;69.08;98644.53;5067515;28;20044;-84
2024/01/24 08:23:18;;;;;;;126.13;63.53;;;;;;;10.46;67.57;98648.16;5071844;28;20028;-83
2024/01/24 08:25:44;;;;;;;123.78;66.18;;;;;;;10.91;64.81;98646.09;5057088;28;20056;-84
2024/01/24 08:28:10;;;;;;;124.40;63.42;;;;;;;11.10;63.58;98638.94;5070155;28;20039;-84
2024/01/24 08:30:36;;;;;;;122.18;64.30;;;;;;;11.33;62.98;98638.72;5054316;28;20475;-84
2024/01/24 08:33:01;;;;;;;126.00;65.40;;;;;;;11.94;61.12;98630.41;5052891;28;20028;-85
2024/01/24 08:35:27;;;;;;;130.20;69.38;;;;;;;12.08;58.80;98627.91;5059793;28;20061;-84
2024/01/24 08:37:53;;;;;;;130.07;66.88;;;;;;;12.82;56.46;98620.44;5071182;28;20475;-85
2024/01/24 08:40:21;;;;;;;132.75;67.53;;;;;;;13.33;53.90;98611.34;5053065;28;20093;-83
2024/01/24 08:42:46;;;;;;;131.02;69.35;;;;;;;13.70;52.38;98600.25;5076010;28;20035;-85
2024/01/24 08:45:12;;;;;;;135.15;71.70;;;;;;;13.32;52.94;98605.09;5067876;28;20035;-86
2024/01/24 08:47:38;;;;;;;151.75;82.93;;;;;;;13.55;52.38;98604.69;5069841;28;20090;-85
2024/01/24 08:50:04;;;;;;;156.30;83.13;;;;;;;13.58;52.89;98596.44;5053121;28;20036;-86
2024/01/24 08:52:31;;;;;;;148.00;77.97;;;;;;;13.30;53.07;98601.66;5078215;28;20116;-85
2024/01/24 08:54:57;;;;;;;159.85;85.97;;;;;;;13.18;52.80;98601.47;5052907;28;20496;-86
2024/01/24 08:57:24;;;;;;;158.55;86.80;;;;;;;13.50;51.96;98592.47;5055620;28;20038;-86
2024/01/24 08:59:50;;;;;;;175.55;81.72;;;;;;;13.25;52.17;98590.31;5069760;28;20060;-86
2024/01/24 09:02:16;;;;;;;152.10;81.00;;;;;;;13.15;53.46;98601.63;5078390;28;20063;-87
2024/01/24 09:04:41;;;;;;;152.63;83.93;;;;;;;13.64;52.39;98599.72;5052858;28;20458;-85
2024/01/24 09:07:08;;;;;;;153.75;85.15;;;;;;;14.53;50.38;98597.09;5069089;28;20079;-84
2024/01/24 09:09:34;;;;;;;148.20;78.03;;;;;;;15.03;49.33;98592.16;5083800;28;20032;-82
2024/01/24 09:12:00;;;;;;;162.90;89.13;;;;;;;15.21;48.17;98595.50;5071047;28;20028;-83
2024/01/24 09:14:26;;;;;;;149.52;82.43;;;;;;;14.29;48.80;98596.75;5069381;28;20530;-85
2024/01/24 09:16:52;;;;;;;139.27;75.10;;;;;;;14.62;49.11;98599.25;5086453;28;20440;-86
2024/01/24 09:19:17;;;;;;;131.90;75.07;;;;;;;14.84;47.96;98590.69;5072357;28;20028;-86
2024/01/24 09:21:43;;;;;;;141.98;79.57;;;;;;;15.22;47.65;98581.06;5082423;28;20025;-87
2024/01/24 09:24:09;;;;;;;159.70;89.28;;;;;;;14.62;48.09;98585.78;5063548;28;20553;-86
2024/01/24 09:26:36;;;;;;;145.32;80.88;;;;;;;14.05;48.47;98584.75;5063065;28;20020;-85
2024/01/24 09:29:02;;;;;;;158.05;81.63;;;;;;;14.46;49.03;98585.84;5068270;28;20564;-86
2024/01/24 09:31:29;;;;;;;137.13;77.47;;;;;;;14.74;48.87;98560.78;5082497;28;20059;-87
2024/01/24 09:33:55;;;;;;;121.75;68.00;;;;;;;14.49;49.73;98563.25;5076379;28;20400;-86
2024/01/24 09:36:23;;;;;;;126.13;67.32;;;;;;;15.30;47.70;98559.88;5081905;28;20109;-85
2024/01/24 09:38:49;;;;;;;124.43;68.40;;;;;;;15.76;46.36;98555.03;5076341;28;20032;-85
2024/01/24 09:41:20;;;;;;;126.30;70.60;;;;;;;15.83;46.45;98555.50;5086938;28;20030;-86
2024/01/24 09:43:47;;;;;;;127.15;70.57;;;;;;;16.83;44.51;98541.28;5088055;28;20036;-85
2024/01/24 09:46:16;;;;;;;166.82;87.80;;;;;;;17.22;43.75;98533.03;5093582;28;20024;-87
2024/01/24 09:48:44;;;;;;;260.05;126.35;;;;;;;17.27;43.79;98520.03;5051699;28;20064;-86
2024/01/24 09:51:10;;;;;;;202.13;104.72;;;;;;;17.46;42.87;98516.84;5056472;28;20107;-86
2024/01/24 09:53:41;;;;;;;145.73;81.75;;;;;;;17.07;43.55;98519.75;5079871;28;20168;-87
2024/01/24 09:56:07;;;;;;;141.25;79.95;;;;;;;16.11;45.35;98525.69;5081467;28;20429;-85
2024/01/24 09:58:33;;;;;;;139.15;80.85;;;;;;;16.06;45.68;98519.72;5058739;28;20138;-87
2024/01/24 10:01:00;;;;;;;142.75;80.55;;;;;;;16.76;44.20;98516.53;5082340;28;20028;-83
2024/01/24 10:03:26;;;;;;;130.18;71.55;;;;;;;16.31;44.55;98514.34;5081219;28;20443;-85
2024/01/24 10:05:52;;;;;;;125.65;70.50;;;;;;;16.74;44.98;98515.78;5077476;28;20483;-87
2024/01/24 10:08:18;;;;;;;137.50;76.45;;;;;;;17.34;43.89;98510.50;5073716;28;20027;-87
2024/01/24 10:10:45;;;;;;;117.30;67.55;;;;;;;17.55;43.16;98493.66;5088369;28;20087;-84
2024/01/24 10:13:11;;;;;;;131.18;74.30;;;;;;;17.57;43.13;98487.16;5063238;28;20363;-86
2024/01/24 10:15:40;;;;;;;114.75;63.35;;;;;;;17.20;42.87;98496.22;5064570;28;20028;-87
2024/01/24 10:18:08;;;;;;;123.65;62.90;;;;;;;16.37;44.14;98492.31;5073353;28;20043;-86
2024/01/24 10:20:34;;;;;;;99.78;52.92;;;;;;;16.45;44.40;98495.38;5076596;28;20036;-86
2024/01/24 10:23:00;;;;;;;88.95;47.60;;;;;;;16.84;43.59;98474.59;5068709;28;20123;-87
2024/01/24 10:25:25;;;;;;;81.30;46.45;;;;;;;17.38;42.88;98480.50;5086100;28;20048;-90
2024/01/24 10:27:51;;;;;;;87.43;47.83;;;;;;;17.47;42.53;98474.41;5062204;28;20048;-86
2024/01/24 10:30:17;;;;;;;77.55;44.22;;;;;;;17.30;42.49;98467.53;5055510;28;20040;-85
2024/01/24 10:32:45;;;;;;;79.82;43.90;;;;;;;16.86;43.02;98469.97;5083675;28;20392;-85
2024/01/24 10:35:11;;;;;;;87.25;46.60;;;;;;;17.60;42.11;98465.28;5058972;28;20480;-85
2024/01/24 10:37:36;;;;;;;87.75;47.03;;;;;;;17.86;42.23;98452.47;5067652;28;20019;-87
2024/01/24 10:40:11;;;;;;;86.13;46.60;;;;;;;18.54;41.24;98432.69;5068195;28;20098;-86
2024/01/24 10:42:40;;;;;;;78.78;44.50;;;;;;;18.84;40.39;98436.50;5060749;28;20031;-86
2024/01/24 10:45:06;;;;;;;80.93;43.88;;;;;;;19.16;39.78;98416.72;5068193;28;20059;-86
2024/01/24 10:47:33;;;;;;;76.53;43.50;;;;;;;19.09;39.88;98420.94;5075893;28;20026;-87
2024/01/24 10:50:03;;;;;;;71.43;42.53;;;;;;;19.73;38.79;98405.56;5078059;28;20044;-89
2024/01/24 10:52:29;;;;;;;73.70;39.10;;;;;;;19.32;39.09;98393.59;5083284;28;20180;-89
2024/01/24 10:54:58;;;;;;;55.60;31.83;;;;;;;18.77;39.12;98397.31;5065026;28;20027;-90
2024/01/24 10:57:24;;;;;;;51.13;29.77;;;;;;;18.78;38.86;98384.63;5084162;28;20055;-89
2024/01/24 10:59:50;;;;;;;55.08;31.33;;;;;;;19.66;37.89;98388.06;5081363;28;20087;-88
2024/01/24 11:02:16;;;;;;;44.78;27.13;;;;;;;20.13;36.66;98383.97;5061737;28;20032;-89
2024/01/24 11:04:43;;;;;;;36.75;22.30;;;;;;;20.48;36.31;98376.34;5062418;28;20054;-88
2024/01/24 11:07:13;;;;;;;24.17;15.02;;;;;;;19.84;36.81;98368.34;5069937;28;20436;-90